sensor_id;sensor_type;location;lat;lon;timestamp;temperature;humidity
8338;DHT22;4206;48.634;9.516;2023-05-23T00:00:13;13.70;99.90
8338;DHT22;4206;48.634;9.516;2023-05-23T00:02:41;13.70;99.90
8338;DHT22;4206;48.634;9.516;2023-05-23T00:05:08;13.70;99.90
8338;DHT22;4206;48.634;9.516;2023-05-23T00:07:35;13.70;99.90
8338;DHT22;4206;48.634;9.516;2023-05-23T00:10:02;13.70;99.90
8338;DHT22;4206;48.634;9.516;2023-05-23T00:12:29;13.70;99.90
8338;DHT22;4206;48.634;9.516;2023-05-23T00:14:56;13.70;99.90
8338;DHT22;4206;48.634;9.516;2023-05-23T00:17:23;13.70;99.90
8338;DHT22;4206;48.634;9.516;2023-05-23T00:19:51;13.80;99.90
8338;DHT22;4206;48.634;9.516;2023-05-23T00:22:18;13.90;99.90
8338;DHT22;4206;48.634;9.516;2023-05-23T00:24:45;13.90;99.90
8338;DHT22;4206;48.634;9.516;2023-05-23T00:27:12;13.90;99.90
8338;DHT22;4206;48.634;9.516;2023-05-23T00:29:39;14.00;99.90
8338;DHT22;4206;48.634;9.516;2023-05-23T00:32:06;14.10;99.90
8338;DHT22;4206;48.634;9.516;2023-05-23T00:34:32;14.20;99.90
8338;DHT22;4206;48.634;9.516;2023-05-23T00:37:00;14.20;99.90
8338;DHT22;4206;48.634;9.516;2023-05-23T00:39:28;14.30;99.90
8338;DHT22;4206;48.634;9.516;2023-05-23T00:41:55;14.30;99.90
8338;DHT22;4206;48.634;9.516;2023-05-23T00:44:22;14.40;99.90
8338;DHT22;4206;48.634;9.516;2023-05-23T00:46:52;14.30;99.90
8338;DHT22;4206;48.634;9.516;2023-05-23T00:49:21;14.30;99.90
8338;DHT22;4206;48.634;9.516;2023-05-23T00:51:48;14.30;99.90
8338;DHT22;4206;48.634;9.516;2023-05-23T00:54:19;14.30;99.90
8338;DHT22;4206;48.634;9.516;2023-05-23T00:56:48;14.30;99.90
8338;DHT22;4206;48.634;9.516;2023-05-23T00:59:15;14.30;99.90
8338;DHT22;4206;48.634;9.516;2023-05-23T01:01:42;14.40;99.90
8338;DHT22;4206;48.634;9.516;2023-05-23T01:04:13;14.40;99.90
8338;DHT22;4206;48.634;9.516;2023-05-23T01:06:42;14.40;99.90
8338;DHT22;4206;48.634;9.516;2023-05-23T01:09:13;14.60;99.90
8338;DHT22;4206;48.634;9.516;2023-05-23T01:11:49;14.50;99.90
8338;DHT22;4206;48.634;9.516;2023-05-23T01:14:27;14.60;99.90
8338;DHT22;4206;48.634;9.516;2023-05-23T01:17:00;14.60;99.90
8338;DHT22;4206;48.634;9.516;2023-05-23T01:22:21;14.70;99.90
8338;DHT22;4206;48.634;9.516;2023-05-23T01:24:56;14.70;99.90
8338;DHT22;4206;48.634;9.516;2023-05-23T01:30:08;14.80;99.90
8338;DHT22;4206;48.634;9.516;2023-05-23T01:32:36;14.90;99.90
8338;DHT22;4206;48.634;9.516;2023-05-23T01:35:05;14.90;99.90
8338;DHT22;4206;48.634;9.516;2023-05-23T01:37:32;14.90;99.90
8338;DHT22;4206;48.634;9.516;2023-05-23T01:39:58;14.90;99.90
8338;DHT22;4206;48.634;9.516;2023-05-23T01:42:25;14.90;99.90
8338;DHT22;4206;48.634;9.516;2023-05-23T01:44:53;14.90;99.90
8338;DHT22;4206;48.634;9.516;2023-05-23T01:47:20;14.80;99.90
8338;DHT22;4206;48.634;9.516;2023-05-23T01:49:48;14.90;99.90
8338;DHT22;4206;48.634;9.516;2023-05-23T01:52:15;15.00;99.90
8338;DHT22;4206;48.634;9.516;2023-05-23T01:54:43;15.00;99.90
8338;DHT22;4206;48.634;9.516;2023-05-23T01:57:11;15.00;99.90
8338;DHT22;4206;48.634;9.516;2023-05-23T01:59:38;15.00;99.90
8338;DHT22;4206;48.634;9.516;2023-05-23T02:02:05;15.00;99.90
8338;DHT22;4206;48.634;9.516;2023-05-23T02:04:32;15.00;99.90
8338;DHT22;4206;48.634;9.516;2023-05-23T02:06:59;15.10;99.90
8338;DHT22;4206;48.634;9.516;2023-05-23T02:09:26;15.10;99.90
8338;DHT22;4206;48.634;9.516;2023-05-23T02:11:53;15.10;99.90
8338;DHT22;4206;48.634;9.516;2023-05-23T02:14:20;15.10;99.90
8338;DHT22;4206;48.634;9.516;2023-05-23T02:16:47;15.10;99.90
8338;DHT22;4206;48.634;9.516;2023-05-23T02:19:14;15.20;99.90
8338;DHT22;4206;48.634;9.516;2023-05-23T02:21:42;15.20;99.90
8338;DHT22;4206;48.634;9.516;2023-05-23T02:24:09;15.20;99.90
8338;DHT22;4206;48.634;9.516;2023-05-23T02:26:36;15.20;99.90
8338;DHT22;4206;48.634;9.516;2023-05-23T02:29:03;15.20;99.90
8338;DHT22;4206;48.634;9.516;2023-05-23T02:31:30;15.20;99.90
8338;DHT22;4206;48.634;9.516;2023-05-23T02:33:57;15.20;99.90
8338;DHT22;4206;48.634;9.516;2023-05-23T02:36:24;15.20;99.90
8338;DHT22;4206;48.634;9.516;2023-05-23T02:38:52;15.20;99.90
8338;DHT22;4206;48.634;9.516;2023-05-23T02:41:19;15.20;99.90
8338;DHT22;4206;48.634;9.516;2023-05-23T02:43:47;15.20;99.90
8338;DHT22;4206;48.634;9.516;2023-05-23T02:46:14;15.20;99.90
8338;DHT22;4206;48.634;9.516;2023-05-23T02:48:41;15.20;99.90
8338;DHT22;4206;48.634;9.516;2023-05-23T02:51:08;15.20;99.90
8338;DHT22;4206;48.634;9.516;2023-05-23T02:53:35;15.20;99.90
8338;DHT22;4206;48.634;9.516;2023-05-23T02:56:01;15.20;99.90
8338;DHT22;4206;48.634;9.516;2023-05-23T02:58:28;15.20;99.90
8338;DHT22;4206;48.634;9.516;2023-05-23T03:00:56;15.20;99.90
8338;DHT22;4206;48.634;9.516;2023-05-23T03:03:22;15.20;99.90
8338;DHT22;4206;48.634;9.516;2023-05-23T03:05:49;15.30;99.90
8338;DHT22;4206;48.634;9.516;2023-05-23T03:08:17;15.30;99.90
8338;DHT22;4206;48.634;9.516;2023-05-23T03:10:44;15.30;99.90
8338;DHT22;4206;48.634;9.516;2023-05-23T03:13:10;15.20;99.90
8338;DHT22;4206;48.634;9.516;2023-05-23T03:15:37;15.20;99.90
8338;DHT22;4206;48.634;9.516;2023-05-23T03:18:04;15.30;99.90
8338;DHT22;4206;48.634;9.516;2023-05-23T03:20:31;15.30;99.90
8338;DHT22;4206;48.634;9.516;2023-05-23T03:22:58;15.30;99.90
8338;DHT22;4206;48.634;9.516;2023-05-23T03:25:25;15.30;99.90
8338;DHT22;4206;48.634;9.516;2023-05-23T03:27:52;15.30;99.90
8338;DHT22;4206;48.634;9.516;2023-05-23T03:30:19;15.30;99.90
8338;DHT22;4206;48.634;9.516;2023-05-23T03:32:46;15.30;99.90
8338;DHT22;4206;48.634;9.516;2023-05-23T03:35:13;15.30;99.90
8338;DHT22;4206;48.634;9.516;2023-05-23T03:37:41;15.30;99.90
8338;DHT22;4206;48.634;9.516;2023-05-23T03:40:08;15.30;99.90
8338;DHT22;4206;48.634;9.516;2023-05-23T03:42:37;15.30;99.90
8338;DHT22;4206;48.634;9.516;2023-05-23T03:45:04;15.30;99.90
8338;DHT22;4206;48.634;9.516;2023-05-23T03:47:31;15.30;99.90
8338;DHT22;4206;48.634;9.516;2023-05-23T03:49:58;15.30;99.90
8338;DHT22;4206;48.634;9.516;2023-05-23T03:52:25;15.40;99.90
8338;DHT22;4206;48.634;9.516;2023-05-23T03:54:52;15.30;99.90
8338;DHT22;4206;48.634;9.516;2023-05-23T03:57:19;15.30;99.90
8338;DHT22;4206;48.634;9.516;2023-05-23T03:59:46;15.30;99.90
8338;DHT22;4206;48.634;9.516;2023-05-23T04:02:13;15.30;99.90
8338;DHT22;4206;48.634;9.516;2023-05-23T04:04:40;15.40;99.90
8338;DHT22;4206;48.634;9.516;2023-05-23T04:07:07;15.40;99.90
8338;DHT22;4206;48.634;9.516;2023-05-23T04:09:35;15.30;99.90
8338;DHT22;4206;48.634;9.516;2023-05-23T04:12:02;15.40;99.90
8338;DHT22;4206;48.634;9.516;2023-05-23T04:14:29;15.40;99.90
8338;DHT22;4206;48.634;9.516;2023-05-23T04:16:59;15.30;99.90
8338;DHT22;4206;48.634;9.516;2023-05-23T04:19:26;15.30;99.90
8338;DHT22;4206;48.634;9.516;2023-05-23T04:21:53;15.30;99.90
8338;DHT22;4206;48.634;9.516;2023-05-23T04:24:20;15.30;99.90
8338;DHT22;4206;48.634;9.516;2023-05-23T04:26:47;15.40;99.90
8338;DHT22;4206;48.634;9.516;2023-05-23T04:29:14;15.40;99.90
8338;DHT22;4206;48.634;9.516;2023-05-23T04:31:41;15.40;99.90
8338;DHT22;4206;48.634;9.516;2023-05-23T04:34:11;15.40;99.90
8338;DHT22;4206;48.634;9.516;2023-05-23T04:36:38;15.40;99.90
8338;DHT22;4206;48.634;9.516;2023-05-23T04:39:06;15.40;99.90
8338;DHT22;4206;48.634;9.516;2023-05-23T04:41:32;15.50;99.90
8338;DHT22;4206;48.634;9.516;2023-05-23T04:43:59;15.50;99.90
8338;DHT22;4206;48.634;9.516;2023-05-23T04:46:26;15.60;99.90
8338;DHT22;4206;48.634;9.516;2023-05-23T04:48:53;15.60;99.90
8338;DHT22;4206;48.634;9.516;2023-05-23T04:51:21;15.50;99.90
8338;DHT22;4206;48.634;9.516;2023-05-23T04:53:50;15.50;99.90
8338;DHT22;4206;48.634;9.516;2023-05-23T04:56:17;15.60;99.90
8338;DHT22;4206;48.634;9.516;2023-05-23T04:58:47;15.60;99.90
8338;DHT22;4206;48.634;9.516;2023-05-23T05:01:15;15.60;99.90
8338;DHT22;4206;48.634;9.516;2023-05-23T05:03:41;15.60;99.90
8338;DHT22;4206;48.634;9.516;2023-05-23T05:06:08;15.60;99.90
8338;DHT22;4206;48.634;9.516;2023-05-23T05:08:35;15.60;99.90
8338;DHT22;4206;48.634;9.516;2023-05-23T05:11:02;15.60;99.90
8338;DHT22;4206;48.634;9.516;2023-05-23T05:13:29;15.60;99.90
8338;DHT22;4206;48.634;9.516;2023-05-23T05:15:56;15.60;99.90
8338;DHT22;4206;48.634;9.516;2023-05-23T05:18:26;15.60;99.90
8338;DHT22;4206;48.634;9.516;2023-05-23T05:20:53;15.60;99.90
8338;DHT22;4206;48.634;9.516;2023-05-23T05:23:20;15.60;99.90
8338;DHT22;4206;48.634;9.516;2023-05-23T05:25:49;15.60;99.90
8338;DHT22;4206;48.634;9.516;2023-05-23T05:28:16;15.70;99.90
8338;DHT22;4206;48.634;9.516;2023-05-23T05:30:43;15.60;99.90
8338;DHT22;4206;48.634;9.516;2023-05-23T05:33:12;15.60;99.90
8338;DHT22;4206;48.634;9.516;2023-05-23T05:35:38;15.60;99.90
8338;DHT22;4206;48.634;9.516;2023-05-23T05:38:06;15.70;99.90
8338;DHT22;4206;48.634;9.516;2023-05-23T05:40:34;15.70;99.90
8338;DHT22;4206;48.634;9.516;2023-05-23T05:43:00;15.70;99.90
8338;DHT22;4206;48.634;9.516;2023-05-23T05:45:27;15.70;99.90
8338;DHT22;4206;48.634;9.516;2023-05-23T05:47:54;15.70;99.90
8338;DHT22;4206;48.634;9.516;2023-05-23T05:50:21;15.70;99.90
8338;DHT22;4206;48.634;9.516;2023-05-23T05:52:48;15.80;99.90
8338;DHT22;4206;48.634;9.516;2023-05-23T05:55:15;15.80;99.90
8338;DHT22;4206;48.634;9.516;2023-05-23T05:57:41;15.90;99.90
8338;DHT22;4206;48.634;9.516;2023-05-23T06:00:10;15.80;99.90
8338;DHT22;4206;48.634;9.516;2023-05-23T06:02:39;15.80;99.90
8338;DHT22;4206;48.634;9.516;2023-05-23T06:05:08;15.90;99.90
8338;DHT22;4206;48.634;9.516;2023-05-23T06:07:38;15.90;99.90
8338;DHT22;4206;48.634;9.516;2023-05-23T06:10:06;15.90;99.90
8338;DHT22;4206;48.634;9.516;2023-05-23T06:12:34;15.90;99.90
8338;DHT22;4206;48.634;9.516;2023-05-23T06:15:01;15.90;99.90
8338;DHT22;4206;48.634;9.516;2023-05-23T06:17:28;16.00;99.90
8338;DHT22;4206;48.634;9.516;2023-05-23T06:19:54;16.00;99.90
8338;DHT22;4206;48.634;9.516;2023-05-23T06:22:22;16.00;99.90
8338;DHT22;4206;48.634;9.516;2023-05-23T06:24:48;16.10;99.90
8338;DHT22;4206;48.634;9.516;2023-05-23T06:27:17;16.20;99.90
8338;DHT22;4206;48.634;9.516;2023-05-23T06:29:44;16.30;99.90
8338;DHT22;4206;48.634;9.516;2023-05-23T06:32:11;16.30;99.90
8338;DHT22;4206;48.634;9.516;2023-05-23T06:34:38;16.30;99.90
8338;DHT22;4206;48.634;9.516;2023-05-23T06:37:04;16.20;99.90
8338;DHT22;4206;48.634;9.516;2023-05-23T06:39:31;16.30;99.90
8338;DHT22;4206;48.634;9.516;2023-05-23T06:41:58;16.50;99.90
8338;DHT22;4206;48.634;9.516;2023-05-23T06:44:25;16.60;99.90
8338;DHT22;4206;48.634;9.516;2023-05-23T06:46:52;16.70;99.90
8338;DHT22;4206;48.634;9.516;2023-05-23T06:49:23;16.80;99.90
8338;DHT22;4206;48.634;9.516;2023-05-23T06:51:50;16.90;99.90
8338;DHT22;4206;48.634;9.516;2023-05-23T06:54:18;17.00;99.90
8338;DHT22;4206;48.634;9.516;2023-05-23T06:56:45;17.00;99.90
8338;DHT22;4206;48.634;9.516;2023-05-23T06:59:12;17.00;99.90
8338;DHT22;4206;48.634;9.516;2023-05-23T07:01:38;17.00;99.90
8338;DHT22;4206;48.634;9.516;2023-05-23T07:04:06;17.00;99.90
8338;DHT22;4206;48.634;9.516;2023-05-23T07:06:34;16.90;99.90
8338;DHT22;4206;48.634;9.516;2023-05-23T07:09:02;17.00;99.90
8338;DHT22;4206;48.634;9.516;2023-05-23T07:11:29;17.00;99.90
8338;DHT22;4206;48.634;9.516;2023-05-23T07:13:57;17.00;99.90
8338;DHT22;4206;48.634;9.516;2023-05-23T07:16:24;17.00;99.90
8338;DHT22;4206;48.634;9.516;2023-05-23T07:18:51;17.00;99.90
8338;DHT22;4206;48.634;9.516;2023-05-23T07:21:18;16.80;99.90
8338;DHT22;4206;48.634;9.516;2023-05-23T07:23:45;16.80;99.90
8338;DHT22;4206;48.634;9.516;2023-05-23T07:26:12;16.80;99.90
8338;DHT22;4206;48.634;9.516;2023-05-23T07:28:39;16.80;99.90
8338;DHT22;4206;48.634;9.516;2023-05-23T07:31:06;16.80;99.90
8338;DHT22;4206;48.634;9.516;2023-05-23T07:33:35;16.70;99.90
8338;DHT22;4206;48.634;9.516;2023-05-23T07:36:03;16.60;99.90
8338;DHT22;4206;48.634;9.516;2023-05-23T07:38:30;16.60;99.90
8338;DHT22;4206;48.634;9.516;2023-05-23T07:40:56;16.40;99.90
8338;DHT22;4206;48.634;9.516;2023-05-23T07:43:36;16.40;99.90
8338;DHT22;4206;48.634;9.516;2023-05-23T07:46:03;16.40;99.90
8338;DHT22;4206;48.634;9.516;2023-05-23T07:48:30;16.40;99.90
8338;DHT22;4206;48.634;9.516;2023-05-23T07:50:57;16.50;99.90
8338;DHT22;4206;48.634;9.516;2023-05-23T07:53:24;16.50;99.90
8338;DHT22;4206;48.634;9.516;2023-05-23T07:55:51;16.50;99.90
8338;DHT22;4206;48.634;9.516;2023-05-23T07:58:18;16.60;99.90
8338;DHT22;4206;48.634;9.516;2023-05-23T08:00:45;16.60;99.90
8338;DHT22;4206;48.634;9.516;2023-05-23T08:03:12;16.60;99.90
8338;DHT22;4206;48.634;9.516;2023-05-23T08:05:39;16.70;99.90
8338;DHT22;4206;48.634;9.516;2023-05-23T08:08:06;16.80;99.90
8338;DHT22;4206;48.634;9.516;2023-05-23T08:10:33;16.80;99.90
8338;DHT22;4206;48.634;9.516;2023-05-23T08:13:00;16.90;99.90
8338;DHT22;4206;48.634;9.516;2023-05-23T08:15:32;17.10;99.90
8338;DHT22;4206;48.634;9.516;2023-05-23T08:17:59;17.10;99.90
8338;DHT22;4206;48.634;9.516;2023-05-23T08:20:27;17.20;99.90
8338;DHT22;4206;48.634;9.516;2023-05-23T08:22:58;17.10;99.90
8338;DHT22;4206;48.634;9.516;2023-05-23T08:25:26;17.00;99.90
8338;DHT22;4206;48.634;9.516;2023-05-23T08:27:57;17.00;99.90
8338;DHT22;4206;48.634;9.516;2023-05-23T08:30:25;16.90;99.90
8338;DHT22;4206;48.634;9.516;2023-05-23T08:32:53;17.00;99.90
8338;DHT22;4206;48.634;9.516;2023-05-23T08:35:21;17.10;99.90
8338;DHT22;4206;48.634;9.516;2023-05-23T08:37:49;17.20;99.90
8338;DHT22;4206;48.634;9.516;2023-05-23T08:40:19;17.20;99.90
8338;DHT22;4206;48.634;9.516;2023-05-23T08:42:48;17.20;99.90
8338;DHT22;4206;48.634;9.516;2023-05-23T08:45:16;17.10;99.90
8338;DHT22;4206;48.634;9.516;2023-05-23T08:47:44;17.20;99.90
8338;DHT22;4206;48.634;9.516;2023-05-23T08:50:14;17.20;99.90
8338;DHT22;4206;48.634;9.516;2023-05-23T08:52:49;17.30;99.90
8338;DHT22;4206;48.634;9.516;2023-05-23T08:55:19;17.40;99.90
8338;DHT22;4206;48.634;9.516;2023-05-23T08:57:46;17.50;99.90
8338;DHT22;4206;48.634;9.516;2023-05-23T09:00:14;17.50;99.90
8338;DHT22;4206;48.634;9.516;2023-05-23T09:02:42;17.50;99.90
8338;DHT22;4206;48.634;9.516;2023-05-23T09:05:11;17.40;99.90
8338;DHT22;4206;48.634;9.516;2023-05-23T09:07:39;17.40;99.90
8338;DHT22;4206;48.634;9.516;2023-05-23T09:10:07;17.40;99.90
8338;DHT22;4206;48.634;9.516;2023-05-23T09:12:36;17.60;99.90
8338;DHT22;4206;48.634;9.516;2023-05-23T09:15:04;17.50;99.90
8338;DHT22;4206;48.634;9.516;2023-05-23T09:17:32;17.40;99.90
8338;DHT22;4206;48.634;9.516;2023-05-23T09:19:59;17.30;99.90
8338;DHT22;4206;48.634;9.516;2023-05-23T09:22:27;17.30;99.90
8338;DHT22;4206;48.634;9.516;2023-05-23T09:24:54;17.30;99.90
8338;DHT22;4206;48.634;9.516;2023-05-23T09:27:22;17.20;99.90
8338;DHT22;4206;48.634;9.516;2023-05-23T09:29:49;17.20;99.90
8338;DHT22;4206;48.634;9.516;2023-05-23T09:32:18;17.20;99.90
8338;DHT22;4206;48.634;9.516;2023-05-23T09:35:01;17.10;99.90
8338;DHT22;4206;48.634;9.516;2023-05-23T09:37:36;17.00;99.90
8338;DHT22;4206;48.634;9.516;2023-05-23T09:40:07;17.10;99.90
8338;DHT22;4206;48.634;9.516;2023-05-23T09:42:41;17.00;99.90
8338;DHT22;4206;48.634;9.516;2023-05-23T09:45:10;17.00;99.90
8338;DHT22;4206;48.634;9.516;2023-05-23T09:47:37;17.00;99.90
8338;DHT22;4206;48.634;9.516;2023-05-23T09:50:05;17.00;99.90
8338;DHT22;4206;48.634;9.516;2023-05-23T09:52:37;17.10;99.90
8338;DHT22;4206;48.634;9.516;2023-05-23T09:55:05;17.10;99.90
8338;DHT22;4206;48.634;9.516;2023-05-23T09:57:39;17.20;99.90
8338;DHT22;4206;48.634;9.516;2023-05-23T10:00:06;17.20;99.90
8338;DHT22;4206;48.634;9.516;2023-05-23T10:05:22;17.20;99.90
8338;DHT22;4206;48.634;9.516;2023-05-23T10:07:50;17.30;99.90
8338;DHT22;4206;48.634;9.516;2023-05-23T10:10:18;17.30;99.90
8338;DHT22;4206;48.634;9.516;2023-05-23T10:12:49;17.20;99.90
8338;DHT22;4206;48.634;9.516;2023-05-23T10:15:18;17.40;99.90
8338;DHT22;4206;48.634;9.516;2023-05-23T10:18:02;17.40;99.90
8338;DHT22;4206;48.634;9.516;2023-05-23T10:20:32;17.40;99.90
8338;DHT22;4206;48.634;9.516;2023-05-23T10:23:01;17.40;99.90
8338;DHT22;4206;48.634;9.516;2023-05-23T10:25:28;17.60;99.90
8338;DHT22;4206;48.634;9.516;2023-05-23T10:27:57;17.70;99.90
8338;DHT22;4206;48.634;9.516;2023-05-23T10:30:28;17.60;99.90
8338;DHT22;4206;48.634;9.516;2023-05-23T10:32:56;17.70;99.90
8338;DHT22;4206;48.634;9.516;2023-05-23T10:35:37;17.90;99.90
8338;DHT22;4206;48.634;9.516;2023-05-23T10:41:05;18.10;99.90
8338;DHT22;4206;48.634;9.516;2023-05-23T10:43:44;18.00;99.90
8338;DHT22;4206;48.634;9.516;2023-05-23T10:46:13;18.10;99.90
8338;DHT22;4206;48.634;9.516;2023-05-23T10:48:42;18.20;99.90
8338;DHT22;4206;48.634;9.516;2023-05-23T10:51:11;18.60;99.90
8338;DHT22;4206;48.634;9.516;2023-05-23T10:53:43;18.80;99.90
8338;DHT22;4206;48.634;9.516;2023-05-23T10:56:20;19.20;99.90
8338;DHT22;4206;48.634;9.516;2023-05-23T10:58:53;19.40;99.90
8338;DHT22;4206;48.634;9.516;2023-05-23T11:01:20;19.70;99.90
8338;DHT22;4206;48.634;9.516;2023-05-23T11:03:49;20.00;99.90
8338;DHT22;4206;48.634;9.516;2023-05-23T11:06:40;20.10;99.90
8338;DHT22;4206;48.634;9.516;2023-05-23T11:09:15;20.40;99.90
8338;DHT22;4206;48.634;9.516;2023-05-23T11:14:51;21.30;99.90
8338;DHT22;4206;48.634;9.516;2023-05-23T11:17:36;21.70;99.90
8338;DHT22;4206;48.634;9.516;2023-05-23T11:20:04;21.20;99.90
8338;DHT22;4206;48.634;9.516;2023-05-23T11:22:33;21.00;99.90
8338;DHT22;4206;48.634;9.516;2023-05-23T11:25:01;21.00;99.90
8338;DHT22;4206;48.634;9.516;2023-05-23T11:27:34;21.20;99.90
8338;DHT22;4206;48.634;9.516;2023-05-23T11:30:06;21.50;99.90
8338;DHT22;4206;48.634;9.516;2023-05-23T11:32:35;21.70;99.90
8338;DHT22;4206;48.634;9.516;2023-05-23T11:35:05;22.10;99.90
8338;DHT22;4206;48.634;9.516;2023-05-23T11:37:33;23.00;99.90
8338;DHT22;4206;48.634;9.516;2023-05-23T11:40:23;23.20;99.90
8338;DHT22;4206;48.634;9.516;2023-05-23T11:42:52;22.80;99.90
8338;DHT22;4206;48.634;9.516;2023-05-23T11:45:20;22.70;99.90
8338;DHT22;4206;48.634;9.516;2023-05-23T11:47:48;22.90;99.90
8338;DHT22;4206;48.634;9.516;2023-05-23T11:50:15;23.10;99.90
8338;DHT22;4206;48.634;9.516;2023-05-23T11:52:42;22.80;99.90
8338;DHT22;4206;48.634;9.516;2023-05-23T11:55:10;22.30;99.90
8338;DHT22;4206;48.634;9.516;2023-05-23T11:57:37;21.60;99.90
8338;DHT22;4206;48.634;9.516;2023-05-23T12:00:06;21.40;99.90
8338;DHT22;4206;48.634;9.516;2023-05-23T12:02:42;21.00;99.90
8338;DHT22;4206;48.634;9.516;2023-05-23T12:05:11;20.70;99.90
8338;DHT22;4206;48.634;9.516;2023-05-23T12:07:40;20.30;99.90
8338;DHT22;4206;48.634;9.516;2023-05-23T12:10:09;20.70;99.90
8338;DHT22;4206;48.634;9.516;2023-05-23T12:12:40;21.60;99.90
8338;DHT22;4206;48.634;9.516;2023-05-23T12:15:09;21.60;99.90
8338;DHT22;4206;48.634;9.516;2023-05-23T12:17:38;21.70;99.90
8338;DHT22;4206;48.634;9.516;2023-05-23T12:20:10;22.00;99.90
8338;DHT22;4206;48.634;9.516;2023-05-23T12:22:37;22.00;99.90
8338;DHT22;4206;48.634;9.516;2023-05-23T12:25:08;21.60;99.90
8338;DHT22;4206;48.634;9.516;2023-05-23T12:27:38;21.50;99.90
8338;DHT22;4206;48.634;9.516;2023-05-23T12:30:08;21.50;99.90
8338;DHT22;4206;48.634;9.516;2023-05-23T12:32:41;21.30;99.90
8338;DHT22;4206;48.634;9.516;2023-05-23T12:35:09;21.40;99.90
8338;DHT22;4206;48.634;9.516;2023-05-23T12:37:39;21.40;99.90
8338;DHT22;4206;48.634;9.516;2023-05-23T12:40:13;21.30;99.90
8338;DHT22;4206;48.634;9.516;2023-05-23T12:42:54;21.40;99.90
8338;DHT22;4206;48.634;9.516;2023-05-23T12:45:23;21.40;99.90
8338;DHT22;4206;48.634;9.516;2023-05-23T12:47:55;21.30;99.90
8338;DHT22;4206;48.634;9.516;2023-05-23T12:50:22;21.10;99.90
8338;DHT22;4206;48.634;9.516;2023-05-23T12:52:49;21.10;99.90
8338;DHT22;4206;48.634;9.516;2023-05-23T12:55:16;21.50;99.90
8338;DHT22;4206;48.634;9.516;2023-05-23T12:57:43;21.60;99.90
8338;DHT22;4206;48.634;9.516;2023-05-23T13:00:10;21.50;99.90
8338;DHT22;4206;48.634;9.516;2023-05-23T13:02:38;21.30;99.90
8338;DHT22;4206;48.634;9.516;2023-05-23T13:05:06;21.10;99.90
8338;DHT22;4206;48.634;9.516;2023-05-23T13:07:33;20.80;99.90
8338;DHT22;4206;48.634;9.516;2023-05-23T13:10:01;20.80;99.90
8338;DHT22;4206;48.634;9.516;2023-05-23T13:12:28;20.60;99.90
8338;DHT22;4206;48.634;9.516;2023-05-23T13:14:55;20.70;99.90
8338;DHT22;4206;48.634;9.516;2023-05-23T13:17:23;20.70;99.90
8338;DHT22;4206;48.634;9.516;2023-05-23T13:19:50;20.80;99.90
8338;DHT22;4206;48.634;9.516;2023-05-23T13:22:17;21.00;99.90
8338;DHT22;4206;48.634;9.516;2023-05-23T13:24:44;21.10;99.90
8338;DHT22;4206;48.634;9.516;2023-05-23T13:27:11;21.00;99.90
8338;DHT22;4206;48.634;9.516;2023-05-23T13:29:38;21.60;99.90
8338;DHT22;4206;48.634;9.516;2023-05-23T13:32:05;22.50;99.90
8338;DHT22;4206;48.634;9.516;2023-05-23T13:34:32;22.70;99.90
8338;DHT22;4206;48.634;9.516;2023-05-23T13:37:03;22.20;99.90
8338;DHT22;4206;48.634;9.516;2023-05-23T13:39:31;21.90;99.90
8338;DHT22;4206;48.634;9.516;2023-05-23T13:41:58;21.80;99.90
8338;DHT22;4206;48.634;9.516;2023-05-23T13:44:25;22.60;99.90
8338;DHT22;4206;48.634;9.516;2023-05-23T13:46:52;23.50;99.90
8338;DHT22;4206;48.634;9.516;2023-05-23T13:49:19;24.00;99.90
8338;DHT22;4206;48.634;9.516;2023-05-23T13:51:46;23.70;99.90
8338;DHT22;4206;48.634;9.516;2023-05-23T13:54:13;23.20;99.90
8338;DHT22;4206;48.634;9.516;2023-05-23T13:56:40;23.20;99.90
8338;DHT22;4206;48.634;9.516;2023-05-23T13:59:07;22.40;99.90
8338;DHT22;4206;48.634;9.516;2023-05-23T14:01:34;22.40;99.90
8338;DHT22;4206;48.634;9.516;2023-05-23T14:04:01;22.60;99.90
8338;DHT22;4206;48.634;9.516;2023-05-23T14:06:30;22.50;99.90
8338;DHT22;4206;48.634;9.516;2023-05-23T14:08:58;22.80;99.90
8338;DHT22;4206;48.634;9.516;2023-05-23T14:11:25;22.60;99.90
8338;DHT22;4206;48.634;9.516;2023-05-23T14:13:52;23.10;99.90
8338;DHT22;4206;48.634;9.516;2023-05-23T14:16:19;23.10;99.90
8338;DHT22;4206;48.634;9.516;2023-05-23T14:18:46;22.50;99.90
8338;DHT22;4206;48.634;9.516;2023-05-23T14:21:13;22.00;99.90
8338;DHT22;4206;48.634;9.516;2023-05-23T14:23:40;21.60;99.90
8338;DHT22;4206;48.634;9.516;2023-05-23T14:26:07;21.20;99.90
8338;DHT22;4206;48.634;9.516;2023-05-23T14:28:34;21.10;99.90
8338;DHT22;4206;48.634;9.516;2023-05-23T14:31:01;21.40;99.90
8338;DHT22;4206;48.634;9.516;2023-05-23T14:33:28;21.30;99.90
8338;DHT22;4206;48.634;9.516;2023-05-23T14:35:55;21.60;99.90
8338;DHT22;4206;48.634;9.516;2023-05-23T14:38:22;21.60;99.90
8338;DHT22;4206;48.634;9.516;2023-05-23T14:40:49;21.50;99.90
8338;DHT22;4206;48.634;9.516;2023-05-23T14:43:16;21.30;99.90
8338;DHT22;4206;48.634;9.516;2023-05-23T14:45:43;21.10;99.90
8338;DHT22;4206;48.634;9.516;2023-05-23T14:48:10;21.00;99.90
8338;DHT22;4206;48.634;9.516;2023-05-23T14:50:38;21.00;99.90
8338;DHT22;4206;48.634;9.516;2023-05-23T14:53:05;21.00;99.90
8338;DHT22;4206;48.634;9.516;2023-05-23T14:55:32;21.10;99.90
8338;DHT22;4206;48.634;9.516;2023-05-23T14:57:59;21.10;99.90
8338;DHT22;4206;48.634;9.516;2023-05-23T15:00:26;20.80;99.90
8338;DHT22;4206;48.634;9.516;2023-05-23T15:02:53;20.70;99.90
8338;DHT22;4206;48.634;9.516;2023-05-23T15:05:20;20.80;99.90
8338;DHT22;4206;48.634;9.516;2023-05-23T15:07:47;20.60;99.90
8338;DHT22;4206;48.634;9.516;2023-05-23T15:10:14;20.60;99.90
8338;DHT22;4206;48.634;9.516;2023-05-23T15:12:42;20.50;99.90
8338;DHT22;4206;48.634;9.516;2023-05-23T15:15:09;20.30;99.90
8338;DHT22;4206;48.634;9.516;2023-05-23T15:17:36;20.30;99.90
8338;DHT22;4206;48.634;9.516;2023-05-23T15:20:03;20.40;99.90
8338;DHT22;4206;48.634;9.516;2023-05-23T15:22:33;20.50;99.90
8338;DHT22;4206;48.634;9.516;2023-05-23T15:25:06;20.50;99.90
8338;DHT22;4206;48.634;9.516;2023-05-23T15:27:34;20.50;99.90
8338;DHT22;4206;48.634;9.516;2023-05-23T15:30:02;20.40;99.90
8338;DHT22;4206;48.634;9.516;2023-05-23T15:32:29;20.40;99.90
8338;DHT22;4206;48.634;9.516;2023-05-23T15:34:56;20.40;99.90
8338;DHT22;4206;48.634;9.516;2023-05-23T15:37:23;20.40;99.90
8338;DHT22;4206;48.634;9.516;2023-05-23T15:39:50;20.30;99.90
8338;DHT22;4206;48.634;9.516;2023-05-23T15:42:17;20.20;99.90
8338;DHT22;4206;48.634;9.516;2023-05-23T15:44:44;20.30;99.90
8338;DHT22;4206;48.634;9.516;2023-05-23T15:47:11;20.20;99.90
8338;DHT22;4206;48.634;9.516;2023-05-23T15:49:38;20.10;99.90
8338;DHT22;4206;48.634;9.516;2023-05-23T15:52:05;20.00;99.90
8338;DHT22;4206;48.634;9.516;2023-05-23T15:54:31;20.20;99.90
8338;DHT22;4206;48.634;9.516;2023-05-23T15:56:58;20.10;99.90
8338;DHT22;4206;48.634;9.516;2023-05-23T15:59:25;19.90;99.90
8338;DHT22;4206;48.634;9.516;2023-05-23T16:01:52;19.90;99.90
8338;DHT22;4206;48.634;9.516;2023-05-23T16:04:19;19.80;99.90
8338;DHT22;4206;48.634;9.516;2023-05-23T16:06:46;19.80;99.90
8338;DHT22;4206;48.634;9.516;2023-05-23T16:09:13;19.90;99.90
8338;DHT22;4206;48.634;9.516;2023-05-23T16:11:40;19.90;99.90
8338;DHT22;4206;48.634;9.516;2023-05-23T16:14:07;20.10;99.90
8338;DHT22;4206;48.634;9.516;2023-05-23T16:16:34;20.40;99.90
8338;DHT22;4206;48.634;9.516;2023-05-23T16:19:01;20.60;99.90
8338;DHT22;4206;48.634;9.516;2023-05-23T16:21:28;20.50;99.90